EYPA/PLQ METAR and TAF weather

Enter ICAO airport designator
Station Type Date Time Source
EYPA METAR 2021/01/22 06:50 UTC NOAA

EYPA 220650Z 16012KT 120V180 9999 BKN046 03/M00 Q0994 R19/710295


Station Type Date Time Source
EYPA Decoded METAR 2021/01/22 06:50 UTC NOAA

Palanga Intl., Lithuania (EYPA) 55-55-12N 021-03E
Jan 22, 2021 - 01:50 AM EST / 2021.01.22 0650 UTC
Wind: from the SSE (160 degrees) at 14 MPH (12 KT) (direction variable):0
Visibility: greater than 7 mile(s):0
Sky conditions: mostly cloudy
Temperature: 37 F (3 C)
Dew Point: 32 F (0 C)
Relative Humidity: 80%
Pressure (altimeter): 29.35 in. Hg (0994 hPa)
ob: EYPA 220650Z 16012KT 120V180 9999 BKN046 03/M00 Q0994 R19/710295
cycle: 7

Station Type Date Time Source
EYPA TAF 2021/01/22 06:12 UTC NOAA

TAF EYPA 220509Z 2206/2306 14015G25KT 9000 SCT030
BECMG 2216/2218 20010KT BKN015
TEMPO 2300/2306 SHRA BKN006 BKN012CB

Example: see airport list